Airfield :
LOGIN :

Register | Disclaimer

   EN    FR    IT 

 










Legend :    VFR   Marginal VFR   IFR   Intensive IFR   Very Intensive IFR
Visi :
Ceiling :
>= 8 km
>= 3000ft
5 to 8 km
1000 to 3000 ft
1500m to 5 km
500 to 1000 ft
800 to 1500m
200 to 500 ft
< 800m
< 200 ft
Symbols :   Thunderstorms  Fog  Heavy snow  Heavy precipitations  Wind > 20 kt
SIGMETs :     Misc.  Thunderstorms  Icing  Turbulence  Mountain Waves  Volcanic Ashes







- Airport Elevation : 1906 ft
- IATA code : INN


LOWI - Innsbruck

CURRENT METAR :
  • 230520Z VRB01KT 9999 -RA FEW010 SCT020 BKN040 04/02 Q1022 NOSIG

EXPIRED METARs :
  • 230450Z VRB02KT 9999 -RA FEW010 SCT020 BKN035 04/03 Q1022 NOSIG
  • 230420Z 26002KT 9999 -SHRA FEW010 SCT020 BKN035 04/02 Q1022 NOSIG
  • 230350Z 30003KT 9999 -DZ FEW010 SCT020 BKN035 04/03 Q1021 NOSIG
  • 230320Z AUTO 27005KT 9999 -RA FEW008 SCT028 BKN050 04/03 Q1021
  • 230250Z AUTO 27006KT 9999 -RA FEW010 SCT020 BKN046 04/03 Q1021
  • 230220Z AUTO 26004KT 9999 -RA FEW018 SCT024 BKN038 05/04 Q1021

TAF AMD TAF LOWI
Valid from the 23 at 03:00 until the 24 at 00:00 UTC


230332Z 2303/2324 08005KT 9999 FEW015 SCT045 BKN060 TX12/2313Z TN02/2324Z
TEMPO 2303/2307 27010KT 6000 SHRA SCT010 BKN020
BECMG 2309/2311 07007KT FEW050 SCT300
TEMPO 2311/2318 30012G25KT
BECMG 2318/2320 VRB02KT
No reported NOTAMs for that airfield.



MET'MAP, your aeronautical weather chart ! - Copyright ORBIFLY December 2007 - Disclaimer

ORBIFLY MET'MAP TEAM :

Programming & Development : Alexandra Zaïnal
Concept & Development : Baudouin d'Aumeries
Co-Development & Prog : Marc-Olivier Méhu
Technical & hardware support : Manuel Goepfert

Contact : metmap@orbifly.com




SOURCES & CREDITS :

   NOAA